createdAt,value
2022-12-05T00:01:43.048Z,13.43
2022-12-05T00:04:13.747Z,11.03
2022-12-05T00:06:42.848Z,15.43
2022-12-05T00:09:12.320Z,10.00
2022-12-05T00:11:42.811Z,11.47
2022-12-05T00:14:11.795Z,10.40
2022-12-05T00:16:43.156Z,18.87
2022-12-05T00:19:14.136Z,11.10
2022-12-05T00:21:42.190Z,6.43
2022-12-05T00:24:13.932Z,17.07
2022-12-05T00:26:42.113Z,11.40
2022-12-05T00:29:10.677Z,13.20
2022-12-05T00:31:38.954Z,8.37
2022-12-05T00:34:08.725Z,10.53
2022-12-05T00:36:37.191Z,17.10
2022-12-05T00:39:08.227Z,11.50
2022-12-05T00:41:36.454Z,14.53
2022-12-05T00:44:08.121Z,10.27
2022-12-05T00:46:37.468Z,15.83
2022-12-05T00:49:08.334Z,23.33
2022-12-05T00:51:38.340Z,11.80
2022-12-05T00:54:08.573Z,7.30
2022-12-05T00:56:36.927Z,17.60
2022-12-05T00:59:05.699Z,20.43
2022-12-05T01:01:35.853Z,12.40
2022-12-05T01:04:06.726Z,13.53
2022-12-05T01:06:36.146Z,10.43
2022-12-05T01:09:05.011Z,10.70
2022-12-05T01:11:39.280Z,10.97
2022-12-05T01:14:09.894Z,10.53
2022-12-05T01:16:40.329Z,16.10
2022-12-05T01:19:11.928Z,14.23
2022-12-05T01:21:41.615Z,9.43
2022-12-05T01:24:09.976Z,17.53
2022-12-05T01:26:38.605Z,15.60
2022-12-05T01:29:06.665Z,7.40
2022-12-05T01:31:36.494Z,14.40
2022-12-05T01:34:07.168Z,13.27
2022-12-05T01:36:35.339Z,8.70
2022-12-05T01:39:05.040Z,16.10
2022-12-05T01:41:35.517Z,18.07
2022-12-05T01:44:05.722Z,14.53
2022-12-05T01:46:35.355Z,11.50
2022-12-05T01:49:08.502Z,20.43
2022-12-05T01:51:39.096Z,12.23
2022-12-05T01:54:10.153Z,16.70
2022-12-05T01:56:38.595Z,18.03
2022-12-05T01:59:10.661Z,22.03
2022-12-05T02:01:39.594Z,19.27
2022-12-05T02:04:09.342Z,15.80
2022-12-05T02:06:37.662Z,12.27
2022-12-05T02:09:06.021Z,11.80
2022-12-05T02:11:46.638Z,15.03
2022-12-05T02:14:27.834Z,14.00
2022-12-05T02:17:04.166Z,16.60
2022-12-05T02:20:03.498Z,11.57
2022-12-05T02:23:22.518Z,10.10
2022-12-05T02:26:24.286Z,18.80
2022-12-05T02:29:28.879Z,9.30
2022-12-05T02:32:05.877Z,13.37
2022-12-05T02:34:39.607Z,20.80
2022-12-05T02:37:12.822Z,19.00
2022-12-05T02:39:47.362Z,15.87
2022-12-05T02:42:22.843Z,19.37
2022-12-05T02:44:56.245Z,7.53
2022-12-05T02:47:29.351Z,12.77
2022-12-05T02:49:58.581Z,16.87
2022-12-05T02:52:27.593Z,16.47
2022-12-05T02:54:56.926Z,13.00
2022-12-05T02:57:25.102Z,13.40
2022-12-05T02:59:53.199Z,11.33
2022-12-05T03:02:27.600Z,15.50
2022-12-05T03:04:59.596Z,19.73
2022-12-05T03:07:30.295Z,19.33
2022-12-05T03:10:05.287Z,10.43
2022-12-05T03:12:38.573Z,11.73
2022-12-05T03:15:11.269Z,9.87
2022-12-05T03:17:45.674Z,13.77
2022-12-05T03:20:20.237Z,16.97
2022-12-05T03:22:53.774Z,11.87
2022-12-05T03:25:24.905Z,16.63
2022-12-05T03:27:57.851Z,16.57
2022-12-05T03:30:26.139Z,14.80
2022-12-05T03:33:03.786Z,12.27
2022-12-05T03:35:41.320Z,12.93
2022-12-05T03:38:14.326Z,16.90
2022-12-05T03:40:48.493Z,9.40
2022-12-05T03:43:27.472Z,14.83
2022-12-05T03:46:01.421Z,13.20
2022-12-05T03:48:36.483Z,13.93
2022-12-05T03:51:07.709Z,17.27
2022-12-05T03:53:42.804Z,14.30
2022-12-05T03:56:15.004Z,11.57
2022-12-05T03:58:48.629Z,14.83
2022-12-05T04:01:19.075Z,14.80
2022-12-05T04:03:52.564Z,13.80
2022-12-05T04:06:27.039Z,12.80
2022-12-05T04:08:58.732Z,19.93
2022-12-05T04:11:30.153Z,13.13
2022-12-05T04:14:02.723Z,13.60
2022-12-05T04:16:52.629Z,18.10
2022-12-05T04:19:28.188Z,12.23
2022-12-05T04:21:57.250Z,15.97
2022-12-05T04:24:46.737Z,15.10
2022-12-05T04:27:26.583Z,12.70
2022-12-05T04:30:02.039Z,14.13
2022-12-05T04:32:36.745Z,10.97
2022-12-05T04:35:12.718Z,12.93
2022-12-05T04:37:46.172Z,16.87
2022-12-05T04:40:20.104Z,12.97
2022-12-05T04:42:50.944Z,12.30
2022-12-05T04:45:22.083Z,15.57
2022-12-05T04:47:54.344Z,10.93
2022-12-05T04:50:27.958Z,12.53
2022-12-05T04:52:58.487Z,12.53
2022-12-05T04:55:28.132Z,10.93
2022-12-05T04:58:03.996Z,17.33
2022-12-05T05:00:36.188Z,9.63
2022-12-05T05:03:09.768Z,16.33
2022-12-05T05:05:40.583Z,13.70
2022-12-05T05:08:17.976Z,18.93
2022-12-05T05:10:56.268Z,9.10
2022-12-05T05:13:24.696Z,19.57
2022-12-05T05:15:53.662Z,11.20
2022-12-05T05:18:21.678Z,15.17
2022-12-05T05:20:51.087Z,11.30
2022-12-05T05:23:19.090Z,12.60
2022-12-05T05:25:53.666Z,13.10
2022-12-05T05:28:21.782Z,20.17
2022-12-05T05:30:51.078Z,15.83
2022-12-05T05:33:19.130Z,14.43
2022-12-05T05:35:47.517Z,8.97
2022-12-05T05:38:16.867Z,14.20
2022-12-05T05:40:44.884Z,24.53
2022-12-05T05:43:12.885Z,12.63
2022-12-05T05:45:40.913Z,14.93
2022-12-05T05:48:08.923Z,13.00
2022-12-05T05:53:40.796Z,13.23
2022-12-05T05:56:11.156Z,14.97
2022-12-05T05:58:39.410Z,12.33
2022-12-05T06:01:09.238Z,22.90
2022-12-05T06:03:37.651Z,17.77
2022-12-05T06:06:08.295Z,10.80
2022-12-05T06:08:38.634Z,14.17
2022-12-05T06:11:08.572Z,19.40
2022-12-05T06:13:36.857Z,17.53
2022-12-05T06:16:07.084Z,21.43
2022-12-05T06:18:35.605Z,12.03
2022-12-05T06:21:03.920Z,13.33
2022-12-05T06:23:32.015Z,18.90
2022-12-05T06:26:00.146Z,14.60
2022-12-05T06:28:29.884Z,11.83
2022-12-05T06:30:58.091Z,11.50
2022-12-05T06:33:26.160Z,11.90
2022-12-05T06:36:04.473Z,12.73
2022-12-05T06:38:39.163Z,22.07
2022-12-05T06:41:12.290Z,12.40
2022-12-05T06:43:42.258Z,13.37
2022-12-05T06:46:12.289Z,14.40
2022-12-05T06:48:40.679Z,11.77
2022-12-05T06:51:13.241Z,14.97
2022-12-05T06:53:41.936Z,13.57
2022-12-05T06:56:13.604Z,12.27
2022-12-05T06:58:46.124Z,17.00
2022-12-05T07:01:32.178Z,12.00
2022-12-05T07:04:00.420Z,8.43
2022-12-05T07:06:29.142Z,14.30
2022-12-05T07:08:57.667Z,16.73
2022-12-05T07:11:26.109Z,10.10
2022-12-05T07:13:56.859Z,10.50
2022-12-05T07:16:25.444Z,11.70
2022-12-05T07:18:53.573Z,13.27
2022-12-05T07:21:22.249Z,12.00
2022-12-05T07:23:51.479Z,8.80
2022-12-05T07:26:22.299Z,11.03
2022-12-05T07:28:51.045Z,8.87
2022-12-05T07:31:22.777Z,10.53
2022-12-05T07:33:51.715Z,12.10
2022-12-05T07:36:22.407Z,14.33
2022-12-05T07:41:52.239Z,10.03
2022-12-05T07:44:21.134Z,16.17
2022-12-05T07:46:50.567Z,17.83
2022-12-05T07:49:18.630Z,11.60
2022-12-05T07:51:46.588Z,7.67
2022-12-05T07:54:14.785Z,12.70
2022-12-05T07:56:47.620Z,8.00
2022-12-05T07:59:16.357Z,10.40
2022-12-05T08:01:44.424Z,13.10
2022-12-05T08:04:15.813Z,9.80
2022-12-05T08:06:44.249Z,10.47
2022-12-05T08:11:43.588Z,18.83
2022-12-05T08:14:13.985Z,8.23
2022-12-05T08:16:42.434Z,8.90
2022-12-05T08:19:14.046Z,19.73
2022-12-05T08:21:42.079Z,7.83
2022-12-05T08:24:10.601Z,7.60
2022-12-05T08:26:39.257Z,10.17
2022-12-05T08:29:10.085Z,8.57
2022-12-05T08:31:43.868Z,14.00
2022-12-05T08:34:16.156Z,11.30
2022-12-05T08:36:44.722Z,15.97
2022-12-05T08:39:16.038Z,9.20
2022-12-05T08:41:44.198Z,13.50
2022-12-05T08:44:16.232Z,10.07
2022-12-05T08:46:45.809Z,10.20
2022-12-05T08:49:17.106Z,12.47
2022-12-05T08:51:45.417Z,10.47
2022-12-05T08:54:13.688Z,12.57
2022-12-05T08:56:42.155Z,8.60
2022-12-05T08:59:10.232Z,6.80
2022-12-05T09:01:38.662Z,8.17
2022-12-05T09:04:08.054Z,7.93
2022-12-05T09:06:39.486Z,7.23
2022-12-05T09:09:09.383Z,8.43
2022-12-05T09:11:43.970Z,4.93
2022-12-05T09:14:12.042Z,10.60
2022-12-05T09:16:40.484Z,10.67
2022-12-05T09:19:13.137Z,9.00
2022-12-05T09:21:44.059Z,5.80
2022-12-05T09:24:13.428Z,7.20
2022-12-05T09:26:42.370Z,11.73
2022-12-05T09:29:16.291Z,11.00
2022-12-05T09:31:46.431Z,9.70
2022-12-05T09:34:15.264Z,7.23
2022-12-05T09:36:45.152Z,7.80
2022-12-05T09:39:13.212Z,8.70
2022-12-05T09:42:07.863Z,5.60
2022-12-05T09:45:04.979Z,12.70
2022-12-05T09:47:40.900Z,5.17
2022-12-05T09:50:16.810Z,11.10
2022-12-05T09:53:05.187Z,6.80
2022-12-05T09:55:40.770Z,9.23
2022-12-05T09:58:21.049Z,9.00
2022-12-05T10:00:52.306Z,10.27
2022-12-05T10:03:28.260Z,5.83
2022-12-05T10:06:05.935Z,4.83
2022-12-05T10:08:43.287Z,6.50
2022-12-05T10:11:18.392Z,7.27
2022-12-05T10:13:53.365Z,6.57
2022-12-05T10:16:30.501Z,6.17
2022-12-05T10:19:03.627Z,7.80
2022-12-05T10:21:35.402Z,7.30
2022-12-05T10:24:12.262Z,7.50
2022-12-05T10:26:45.569Z,6.03
2022-12-05T10:29:24.915Z,7.50
2022-12-05T10:31:58.714Z,7.90
2022-12-05T10:34:32.069Z,6.37
2022-12-05T10:37:09.737Z,4.80
2022-12-05T10:39:39.907Z,8.20
2022-12-05T10:42:13.423Z,8.63
2022-12-05T10:44:41.748Z,6.23
2022-12-05T10:47:10.179Z,5.27
2022-12-05T10:49:39.642Z,7.27
2022-12-05T10:52:08.025Z,4.73
2022-12-05T10:54:44.398Z,6.50
2022-12-05T10:57:23.384Z,5.43
2022-12-05T10:59:51.567Z,6.90
2022-12-05T11:02:25.909Z,7.33
2022-12-05T11:04:55.332Z,7.33
2022-12-05T11:07:31.838Z,10.57
2022-12-05T11:10:02.880Z,4.50
2022-12-05T11:12:40.837Z,9.57
2022-12-05T11:15:24.877Z,5.30
2022-12-05T11:17:53.893Z,6.53
2022-12-05T11:20:45.994Z,4.23
2022-12-05T11:23:27.710Z,6.53
2022-12-05T11:25:58.201Z,10.53
2022-12-05T11:28:35.740Z,12.40
2022-12-05T11:31:06.533Z,7.40
2022-12-05T11:33:36.243Z,3.57
2022-12-05T11:36:18.817Z,9.23
2022-12-05T11:38:47.163Z,8.10
2022-12-05T11:41:36.845Z,9.00
2022-12-05T11:44:48.839Z,9.67
2022-12-05T11:47:30.327Z,5.20
2022-12-05T11:50:20.082Z,4.97
2022-12-05T11:53:01.735Z,8.07
2022-12-05T11:55:34.395Z,4.63
2022-12-05T11:58:22.428Z,4.27
2022-12-05T12:01:02.559Z,8.50
2022-12-05T12:04:05.634Z,7.43
2022-12-05T12:06:41.821Z,6.20
2022-12-05T12:09:34.569Z,8.30
2022-12-05T12:12:12.120Z,5.87
2022-12-05T12:14:48.657Z,4.97
2022-12-05T12:17:24.855Z,7.30
2022-12-05T12:20:19.005Z,3.80
2022-12-05T12:23:10.107Z,4.73
2022-12-05T12:25:46.752Z,10.60
2022-12-05T12:28:33.758Z,7.33
2022-12-05T12:31:25.995Z,7.70
2022-12-05T12:34:02.648Z,7.00
2022-12-05T12:36:36.875Z,7.83
2022-12-05T12:39:16.673Z,7.60
2022-12-05T12:41:59.675Z,6.40
2022-12-05T12:44:54.240Z,5.10
2022-12-05T12:47:40.118Z,4.27
2022-12-05T12:50:15.880Z,8.93
2022-12-05T12:52:59.870Z,8.57
2022-12-05T12:55:39.684Z,7.50
2022-12-05T12:58:17.208Z,4.60
2022-12-05T13:00:57.291Z,6.20
2022-12-05T13:03:31.744Z,4.67
2022-12-05T13:06:02.328Z,11.70
2022-12-05T13:08:37.026Z,6.53
2022-12-05T13:11:09.403Z,5.70
2022-12-05T13:13:41.629Z,7.57
2022-12-05T13:16:14.370Z,5.10
2022-12-05T13:18:43.865Z,4.33
2022-12-05T13:21:36.441Z,6.60
2022-12-05T13:24:12.493Z,6.47
2022-12-05T13:26:47.448Z,6.87
2022-12-05T13:29:23.520Z,7.03
2022-12-05T13:31:52.959Z,6.10
2022-12-05T13:34:50.043Z,8.00
2022-12-05T13:37:42.113Z,5.90
2022-12-05T13:40:49.715Z,3.93
2022-12-05T13:43:21.343Z,7.53
2022-12-05T13:46:09.061Z,6.43
2022-12-05T13:48:42.346Z,5.10
2022-12-05T13:51:22.782Z,5.83
2022-12-05T13:54:01.043Z,7.57
2022-12-05T13:56:47.281Z,6.90
2022-12-05T13:59:53.701Z,7.20
2022-12-05T14:02:51.147Z,5.03
2022-12-05T14:05:39.732Z,3.50
2022-12-05T14:08:46.749Z,3.30
2022-12-05T14:11:16.305Z,5.33
2022-12-05T14:13:45.997Z,3.43
2022-12-05T14:16:47.320Z,4.60
2022-12-05T14:19:50.125Z,12.97
2022-12-05T14:22:43.417Z,5.10
2022-12-05T14:25:23.088Z,5.50
2022-12-05T14:28:00.290Z,6.67
2022-12-05T14:30:35.396Z,18.70
2022-12-05T14:33:04.019Z,9.63
2022-12-05T14:35:41.714Z,4.33
2022-12-05T14:38:23.356Z,3.40
2022-12-05T14:40:51.785Z,7.80
2022-12-05T14:43:26.817Z,3.10
2022-12-05T14:46:01.890Z,5.70
2022-12-05T14:48:34.135Z,3.03
2022-12-05T14:51:03.269Z,6.27
2022-12-05T14:53:40.567Z,3.00
2022-12-05T14:56:16.342Z,3.43
2022-12-05T14:58:52.865Z,7.60
2022-12-05T15:01:24.681Z,5.60
2022-12-05T15:04:10.651Z,3.50
2022-12-05T15:06:47.027Z,5.60
2022-12-05T15:09:37.952Z,10.37
2022-12-05T15:12:15.870Z,4.20
2022-12-05T15:14:51.218Z,4.50
2022-12-05T15:17:25.364Z,5.27
2022-12-05T15:19:58.516Z,8.03
2022-12-05T15:22:29.173Z,3.80
2022-12-05T15:24:57.487Z,8.30
2022-12-05T15:27:25.720Z,7.60
2022-12-05T15:29:56.676Z,5.83
2022-12-05T15:32:28.714Z,4.23
2022-12-05T15:35:04.795Z,7.60
2022-12-05T15:37:36.576Z,4.17
2022-12-05T15:40:13.351Z,10.90
2022-12-05T15:42:44.568Z,5.47
2022-12-05T15:45:23.858Z,4.60
2022-12-05T15:47:56.682Z,4.23
2022-12-05T15:50:34.642Z,4.80
2022-12-05T15:53:06.980Z,4.70
2022-12-05T15:55:39.847Z,3.00
2022-12-05T15:58:13.259Z,9.13
2022-12-05T16:00:49.468Z,4.87
2022-12-05T16:03:22.500Z,4.80
2022-12-05T16:05:56.532Z,2.67
2022-12-05T16:08:25.295Z,3.13
2022-12-05T16:10:53.449Z,2.53
2022-12-05T16:13:25.176Z,6.83
2022-12-05T16:15:55.956Z,2.90
2022-12-05T16:18:28.809Z,4.07
2022-12-05T16:20:57.507Z,4.60
2022-12-05T16:23:28.698Z,2.83
2022-12-05T16:26:19.632Z,3.30
2022-12-05T16:28:58.587Z,6.50
2022-12-05T16:31:28.557Z,5.30
2022-12-05T16:34:05.762Z,5.17
2022-12-05T16:36:34.380Z,7.07
2022-12-05T16:39:05.173Z,3.90
2022-12-05T16:41:36.783Z,5.23
2022-12-05T16:44:11.460Z,4.47
2022-12-05T16:46:48.265Z,6.53
2022-12-05T16:49:34.237Z,3.60
2022-12-05T16:52:05.114Z,4.57
2022-12-05T16:54:33.181Z,4.87
2022-12-05T16:57:02.172Z,3.50
2022-12-05T16:59:33.373Z,12.70
2022-12-05T17:02:05.254Z,2.70
2022-12-05T17:04:33.570Z,10.90
2022-12-05T17:07:01.700Z,4.23
2022-12-05T17:09:29.728Z,6.60
2022-12-05T17:12:04.511Z,4.10
2022-12-05T17:14:32.552Z,5.10
2022-12-05T17:17:01.964Z,3.03
2022-12-05T17:19:30.259Z,2.97
2022-12-05T17:21:58.300Z,3.40
2022-12-05T17:24:28.287Z,4.20
2022-12-05T17:26:56.297Z,4.87
2022-12-05T17:29:24.309Z,5.03
2022-12-05T17:31:53.166Z,3.10
2022-12-05T17:34:22.562Z,2.43
2022-12-05T17:36:50.574Z,6.07
2022-12-05T17:39:22.344Z,4.13
2022-12-05T17:41:53.443Z,3.73
2022-12-05T17:44:22.037Z,3.77
2022-12-05T17:46:50.168Z,4.07
2022-12-05T17:49:18.503Z,6.77
2022-12-05T17:52:20.013Z,4.03
2022-12-05T17:54:35.953Z,4.73
2022-12-05T17:57:04.127Z,4.00
2022-12-05T17:59:32.140Z,3.53
2022-12-05T18:02:00.176Z,3.10
2022-12-05T18:04:28.299Z,7.37
2022-12-05T18:06:57.727Z,4.90
2022-12-05T18:09:25.840Z,4.47
2022-12-05T18:11:53.895Z,8.17
2022-12-05T18:14:21.981Z,4.70
2022-12-05T18:16:50.499Z,5.90
2022-12-05T18:19:18.615Z,3.03
2022-12-05T18:24:21.253Z,13.17
2022-12-05T18:26:49.290Z,14.40
2022-12-05T18:29:17.561Z,15.77
2022-12-05T18:31:45.614Z,5.80
2022-12-05T18:34:13.799Z,5.67
2022-12-05T18:36:41.994Z,4.53
2022-12-05T18:39:14.471Z,6.60
2022-12-05T18:41:43.862Z,4.13
2022-12-05T18:44:11.923Z,4.80
2022-12-05T18:46:40.163Z,11.10
2022-12-05T18:49:08.438Z,5.37
2022-12-05T18:51:36.419Z,6.00
2022-12-05T18:54:04.683Z,4.90
2022-12-05T18:56:35.564Z,7.13
2022-12-05T18:59:06.330Z,5.03
2022-12-05T19:01:37.380Z,3.67
2022-12-05T19:04:08.320Z,3.80
2022-12-05T19:06:39.863Z,3.57
2022-12-05T19:09:10.068Z,3.23
2022-12-05T19:11:41.713Z,4.10
2022-12-05T19:14:14.003Z,2.43
2022-12-05T19:16:42.129Z,5.47
2022-12-05T19:19:13.233Z,2.03
2022-12-05T19:21:41.757Z,4.60
2022-12-05T19:24:11.907Z,3.17
2022-12-05T19:26:40.468Z,3.50
2022-12-05T19:29:09.139Z,2.57
2022-12-05T19:31:38.747Z,6.20
2022-12-05T19:34:08.879Z,3.43
2022-12-05T19:36:39.456Z,4.17
2022-12-05T19:39:11.498Z,3.70
2022-12-05T19:41:39.552Z,5.17
2022-12-05T19:44:07.803Z,2.97
2022-12-05T19:46:36.511Z,8.40
2022-12-05T19:49:08.327Z,6.63
2022-12-05T19:51:36.825Z,4.13
2022-12-05T19:54:06.750Z,5.40
2022-12-05T19:56:35.896Z,3.80
2022-12-05T19:59:04.264Z,5.63
2022-12-05T20:01:35.065Z,5.53
2022-12-05T20:04:07.169Z,8.23
2022-12-05T20:06:37.074Z,2.60
2022-12-05T20:09:06.389Z,4.67
2022-12-05T20:11:35.193Z,8.13
2022-12-05T20:14:03.512Z,3.33
2022-12-05T20:16:33.534Z,5.07
2022-12-05T20:19:02.156Z,8.30
2022-12-05T20:21:33.322Z,8.70
2022-12-05T20:24:02.636Z,4.03
2022-12-05T20:26:33.097Z,3.47
2022-12-05T20:29:01.957Z,6.17
2022-12-05T20:31:31.916Z,6.67
2022-12-05T20:34:00.179Z,5.17
2022-12-05T20:36:30.224Z,6.30
2022-12-05T20:39:01.557Z,5.03
2022-12-05T20:41:31.387Z,9.20
2022-12-05T20:44:01.502Z,6.10
2022-12-05T20:46:31.579Z,5.53
2022-12-05T20:49:00.388Z,3.47
2022-12-05T20:51:30.785Z,4.30
2022-12-05T20:54:01.568Z,3.23
2022-12-05T20:56:31.612Z,5.03
2022-12-05T20:59:01.783Z,4.73
2022-12-05T21:01:32.631Z,5.77
2022-12-05T21:04:01.503Z,9.40
2022-12-05T21:06:31.817Z,3.90
2022-12-05T21:09:02.318Z,6.00
2022-12-05T21:11:31.349Z,4.47
2022-12-05T21:14:01.195Z,4.87
2022-12-05T21:16:29.662Z,9.23
2022-12-05T21:18:59.520Z,3.37
2022-12-05T21:21:29.279Z,5.30
2022-12-05T21:23:58.758Z,4.63
2022-12-05T21:26:29.816Z,6.30
2022-12-05T21:28:58.743Z,4.27
2022-12-05T21:31:29.171Z,4.20
2022-12-05T21:33:58.853Z,3.77
2022-12-05T21:36:28.697Z,4.33
2022-12-05T21:38:57.077Z,4.90
2022-12-05T21:41:25.553Z,12.53
2022-12-05T21:43:55.987Z,3.83
2022-12-05T21:46:25.347Z,5.30
2022-12-05T21:48:53.857Z,4.07
2022-12-05T21:51:22.833Z,5.33
2022-12-05T21:53:51.190Z,8.50
2022-12-05T21:56:22.657Z,6.90
2022-12-05T21:58:50.784Z,9.57
2022-12-05T22:01:22.559Z,6.37
2022-12-05T22:03:53.542Z,15.40
2022-12-05T22:06:21.663Z,9.07
2022-12-05T22:08:49.767Z,11.83
2022-12-05T22:11:19.615Z,6.03
2022-12-05T22:13:48.771Z,8.37
2022-12-05T22:16:17.268Z,9.30
2022-12-05T22:18:47.625Z,4.83
2022-12-05T22:21:17.285Z,9.80
2022-12-05T22:23:45.712Z,6.00
2022-12-05T22:26:17.021Z,16.83
2022-12-05T22:28:45.502Z,6.87
2022-12-05T22:31:15.237Z,7.03
2022-12-05T22:33:43.619Z,6.83
2022-12-05T22:36:15.031Z,6.43
2022-12-05T22:38:44.242Z,6.93
2022-12-05T22:41:14.585Z,8.50
2022-12-05T22:43:43.742Z,8.17
2022-12-05T22:46:13.925Z,13.70
2022-12-05T22:48:42.548Z,7.80
2022-12-05T22:51:12.445Z,11.63
2022-12-05T22:53:40.478Z,10.40
2022-12-05T22:56:10.711Z,8.17
2022-12-05T22:58:39.381Z,8.70
2022-12-05T23:01:12.817Z,10.13
2022-12-05T23:03:44.341Z,16.93
2022-12-05T23:06:15.610Z,9.30
2022-12-05T23:08:45.291Z,8.60
2022-12-05T23:11:13.348Z,21.27
2022-12-05T23:13:41.415Z,11.87
2022-12-05T23:16:11.236Z,12.07
2022-12-05T23:18:47.587Z,11.77
2022-12-05T23:21:19.673Z,14.73
2022-12-05T23:23:48.929Z,11.63
2022-12-05T23:26:18.061Z,8.17
2022-12-05T23:28:46.182Z,23.63
2022-12-05T23:31:14.677Z,11.80
2022-12-05T23:33:43.132Z,12.77
2022-12-05T23:36:12.015Z,26.97
2022-12-05T23:38:42.604Z,15.23
2022-12-05T23:41:14.026Z,22.13
2022-12-05T23:43:43.034Z,13.70
2022-12-05T23:46:12.816Z,10.63
2022-12-05T23:48:41.540Z,14.47
2022-12-05T23:51:12.011Z,13.47
2022-12-05T23:53:44.383Z,9.33
2022-12-05T23:56:16.814Z,10.53
2022-12-05T23:58:45.713Z,8.70
